createdAt,value
2018-12-09T00:00:45.278Z,7.60
2018-12-09T00:03:14.066Z,6.43
2018-12-09T00:05:43.449Z,5.47
2018-12-09T00:08:12.473Z,9.13
2018-12-09T00:10:42.013Z,4.23
2018-12-09T00:13:10.996Z,6.90
2018-12-09T00:15:39.995Z,5.43
2018-12-09T00:18:08.946Z,8.40
2018-12-09T00:20:37.953Z,4.67
2018-12-09T00:23:06.973Z,5.33
2018-12-09T00:25:35.917Z,7.00
2018-12-09T00:28:04.809Z,5.20
2018-12-09T00:30:33.495Z,4.33
2018-12-09T00:33:02.445Z,5.63
2018-12-09T00:35:31.307Z,6.40
2018-12-09T00:37:59.982Z,5.83
2018-12-09T00:40:28.668Z,4.73
2018-12-09T00:42:57.563Z,4.53
2018-12-09T00:45:26.406Z,5.07
2018-12-09T00:47:55.365Z,5.73
2018-12-09T00:50:24.228Z,4.57
2018-12-09T00:52:53.203Z,5.73
2018-12-09T00:55:22.102Z,5.40
2018-12-09T00:57:50.982Z,5.40
2018-12-09T01:00:19.791Z,4.00
2018-12-09T01:02:48.667Z,7.43
2018-12-09T01:05:17.484Z,6.47
2018-12-09T01:07:46.552Z,3.27
2018-12-09T01:10:15.315Z,4.10
2018-12-09T01:12:44.325Z,4.30
2018-12-09T01:15:13.349Z,2.50
2018-12-09T01:17:42.458Z,4.00
2018-12-09T01:20:11.189Z,3.27
2018-12-09T01:22:40.087Z,5.67
2018-12-09T01:25:08.980Z,5.50
2018-12-09T01:27:38.238Z,4.70
2018-12-09T01:30:07.298Z,4.83
2018-12-09T01:32:36.103Z,6.93
2018-12-09T01:35:06.424Z,4.53
2018-12-09T01:37:35.896Z,5.23
2018-12-09T01:40:05.660Z,5.93
2018-12-09T01:42:34.648Z,3.03
2018-12-09T01:45:04.404Z,3.07
2018-12-09T01:47:33.160Z,5.80
2018-12-09T01:50:02.070Z,7.07
2018-12-09T01:52:30.676Z,6.10
2018-12-09T01:54:59.395Z,4.93
2018-12-09T01:57:28.365Z,4.07
2018-12-09T01:59:57.137Z,4.87
2018-12-09T02:02:26.150Z,6.00
2018-12-09T02:04:54.893Z,4.73
2018-12-09T02:07:23.901Z,8.10
2018-12-09T02:09:52.713Z,3.20
2018-12-09T02:12:21.565Z,4.87
2018-12-09T02:14:50.589Z,7.03
2018-12-09T02:17:19.460Z,3.40
2018-12-09T02:19:48.245Z,2.70
2018-12-09T02:22:17.078Z,4.77
2018-12-09T02:24:45.958Z,3.87
2018-12-09T02:27:15.028Z,4.13
2018-12-09T02:29:43.880Z,3.37
2018-12-09T02:32:12.961Z,6.00
2018-12-09T02:34:51.893Z,3.57
2018-12-09T02:37:20.821Z,4.00
2018-12-09T02:39:49.868Z,4.03
2018-12-09T02:42:18.801Z,3.30
2018-12-09T02:44:47.632Z,3.53
2018-12-09T02:47:16.681Z,4.73
2018-12-09T02:49:45.572Z,4.93
2018-12-09T02:52:14.481Z,5.80
2018-12-09T02:54:43.550Z,3.00
2018-12-09T02:57:12.613Z,5.03
2018-12-09T02:59:41.459Z,2.47
2018-12-09T03:02:10.988Z,2.70
2018-12-09T03:04:39.907Z,3.13
2018-12-09T03:07:08.617Z,4.77
2018-12-09T03:09:37.327Z,5.23
2018-12-09T03:12:06.383Z,6.10
2018-12-09T03:14:35.357Z,3.23
2018-12-09T03:17:04.445Z,3.47
2018-12-09T03:19:33.305Z,1.93
2018-12-09T03:22:02.274Z,4.83
2018-12-09T03:24:34.497Z,5.73
2018-12-09T03:27:03.414Z,2.87
2018-12-09T03:29:32.263Z,3.27
2018-12-09T03:32:01.071Z,4.70
2018-12-09T03:34:30.088Z,6.43
2018-12-09T03:36:58.792Z,4.03
2018-12-09T03:39:27.925Z,6.50
2018-12-09T03:41:56.874Z,2.53
2018-12-09T03:44:25.731Z,2.53
2018-12-09T03:46:54.790Z,3.60
2018-12-09T03:49:23.737Z,5.83
2018-12-09T03:51:52.508Z,2.83
2018-12-09T03:54:21.673Z,5.07
2018-12-09T03:56:50.628Z,2.63
2018-12-09T03:59:19.379Z,2.73
2018-12-09T04:01:48.345Z,2.13
2018-12-09T04:04:17.254Z,4.17
2018-12-09T04:06:55.083Z,2.77
2018-12-09T04:09:27.517Z,4.63
2018-12-09T04:12:03.076Z,6.70
2018-12-09T04:14:38.619Z,3.20
2018-12-09T04:17:07.585Z,1.50
2018-12-09T04:19:36.373Z,3.77
2018-12-09T04:22:05.430Z,1.83
2018-12-09T04:24:34.421Z,2.93
2018-12-09T04:27:03.900Z,2.90
2018-12-09T04:29:32.811Z,2.00
2018-12-09T04:32:01.734Z,1.37
2018-12-09T04:34:30.574Z,4.20
2018-12-09T04:36:59.617Z,2.10
2018-12-09T04:39:28.575Z,3.57
2018-12-09T04:41:57.278Z,3.37
2018-12-09T04:44:26.318Z,1.70
2018-12-09T04:46:55.354Z,1.10
2018-12-09T04:49:24.098Z,2.73
2018-12-09T04:51:56.263Z,2.93
2018-12-09T04:54:26.289Z,3.63
2018-12-09T04:56:55.345Z,2.83
2018-12-09T04:59:25.257Z,4.00
2018-12-09T05:01:54.071Z,2.17
2018-12-09T05:04:23.164Z,3.63
2018-12-09T05:06:51.952Z,3.60
2018-12-09T05:09:20.657Z,2.07
2018-12-09T05:11:50.806Z,2.67
2018-12-09T05:14:19.653Z,1.27
2018-12-09T05:16:48.458Z,5.57
2018-12-09T05:19:17.686Z,2.37
2018-12-09T05:21:46.145Z,2.93
2018-12-09T05:24:15.156Z,1.90
2018-12-09T05:26:43.861Z,2.83
2018-12-09T05:29:12.934Z,3.13
2018-12-09T05:31:41.731Z,3.13
2018-12-09T05:34:10.818Z,2.23
2018-12-09T05:36:39.527Z,2.63
2018-12-09T05:39:08.412Z,2.07
2018-12-09T05:41:37.061Z,2.40
2018-12-09T05:44:05.881Z,1.77
2018-12-09T05:46:35.254Z,5.23
2018-12-09T05:49:04.034Z,2.37
2018-12-09T05:51:33.193Z,2.97
2018-12-09T05:54:02.099Z,2.87
2018-12-09T05:56:31.000Z,5.63
2018-12-09T05:58:59.897Z,2.00
2018-12-09T06:01:28.673Z,4.03
2018-12-09T06:03:57.689Z,1.50
2018-12-09T06:06:26.495Z,3.10
2018-12-09T06:08:55.293Z,1.37
2018-12-09T06:11:24.325Z,3.03
2018-12-09T06:13:53.287Z,2.97
2018-12-09T06:16:22.089Z,5.20
2018-12-09T06:18:51.097Z,4.20
2018-12-09T06:21:20.229Z,4.20
2018-12-09T06:23:49.090Z,5.33
2018-12-09T06:26:17.936Z,5.87
2018-12-09T06:28:46.882Z,7.83
2018-12-09T06:31:15.905Z,3.77
2018-12-09T06:33:44.644Z,4.07
2018-12-09T06:36:13.423Z,4.80
2018-12-09T06:38:42.069Z,3.43
2018-12-09T06:41:10.776Z,3.43
2018-12-09T06:43:39.478Z,4.77
2018-12-09T06:46:08.295Z,1.90
2018-12-09T06:48:37.010Z,4.70
2018-12-09T06:51:05.923Z,2.50
2018-12-09T06:53:34.623Z,3.30
2018-12-09T06:56:03.711Z,3.37
2018-12-09T06:58:32.350Z,5.93
2018-12-09T07:01:00.974Z,3.83
2018-12-09T07:03:29.720Z,4.47
2018-12-09T07:05:58.468Z,2.63
2018-12-09T07:08:27.637Z,4.13
2018-12-09T07:10:56.287Z,2.03
2018-12-09T07:13:25.033Z,2.60
2018-12-09T07:15:53.772Z,2.97
2018-12-09T07:18:22.610Z,2.97
2018-12-09T07:20:51.866Z,4.40
2018-12-09T07:23:20.591Z,2.43
2018-12-09T07:25:49.213Z,5.70
2018-12-09T07:28:17.965Z,4.23
2018-12-09T07:30:46.700Z,3.43
2018-12-09T07:33:15.394Z,5.63
2018-12-09T07:35:44.077Z,2.77
2018-12-09T07:38:12.785Z,2.33
2018-12-09T07:40:41.551Z,2.93
2018-12-09T07:43:10.358Z,3.13
2018-12-09T07:45:39.067Z,3.90
2018-12-09T07:48:07.829Z,3.50
2018-12-09T07:50:36.576Z,3.37
2018-12-09T07:53:05.615Z,3.40
2018-12-09T07:55:34.316Z,3.47
2018-12-09T07:58:03.194Z,3.97
2018-12-09T08:00:31.820Z,6.03
2018-12-09T08:03:00.574Z,5.83
2018-12-09T08:05:29.366Z,6.10
2018-12-09T08:07:58.066Z,5.47
2018-12-09T08:10:26.922Z,5.40
2018-12-09T08:12:55.672Z,5.40
2018-12-09T08:15:24.358Z,5.70
2018-12-09T08:17:53.079Z,5.83
2018-12-09T08:20:21.887Z,6.00
2018-12-09T08:22:50.775Z,7.67
2018-12-09T08:25:19.647Z,7.80
2018-12-09T08:27:48.448Z,8.37
2018-12-09T08:30:17.135Z,5.90
2018-12-09T08:32:47.176Z,6.63
2018-12-09T08:35:15.947Z,8.30
2018-12-09T08:37:44.767Z,6.93
2018-12-09T08:40:13.517Z,7.00
2018-12-09T08:42:42.157Z,5.33
2018-12-09T08:45:10.865Z,4.47
2018-12-09T08:47:39.861Z,6.53
2018-12-09T08:50:08.570Z,7.07
2018-12-09T08:52:37.457Z,8.90
2018-12-09T08:55:06.241Z,6.58
2018-12-09T08:57:35.116Z,5.37
2018-12-09T09:00:04.027Z,8.38
2018-12-09T09:02:32.809Z,9.53
2018-12-09T09:05:01.379Z,9.08
2018-12-09T09:07:30.283Z,10.38
2018-12-09T09:09:58.994Z,9.88
2018-12-09T09:12:27.373Z,8.83
2018-12-09T09:14:56.058Z,12.85
2018-12-09T09:17:24.758Z,8.63
2018-12-09T09:19:53.082Z,7.75
2018-12-09T09:22:21.835Z,10.32
2018-12-09T09:24:50.772Z,6.22
2018-12-09T09:27:19.586Z,5.95
2018-12-09T09:29:48.148Z,5.75
2018-12-09T09:32:16.882Z,3.65
2018-12-09T09:34:45.480Z,4.17
2018-12-09T09:37:14.181Z,3.60
2018-12-09T09:39:42.943Z,3.22
2018-12-09T09:42:11.658Z,2.20
2018-12-09T09:44:41.138Z,2.42
2018-12-09T09:47:09.823Z,2.15
2018-12-09T09:49:38.423Z,4.40
2018-12-09T09:52:07.047Z,3.58
2018-12-09T09:54:35.999Z,3.25
2018-12-09T09:57:04.703Z,2.95
2018-12-09T09:59:33.335Z,1.57
2018-12-09T10:02:02.105Z,1.12
2018-12-09T10:04:30.554Z,1.20
2018-12-09T10:06:59.323Z,1.47
2018-12-09T10:09:27.632Z,4.70
2018-12-09T10:11:56.405Z,6.10
2018-12-09T10:14:25.180Z,5.42
2018-12-09T10:16:54.138Z,4.05
2018-12-09T10:19:23.073Z,2.70
2018-12-09T10:21:51.861Z,3.45
2018-12-09T10:24:20.658Z,1.73
2018-12-09T10:26:49.329Z,4.87
2018-12-09T10:29:17.992Z,4.17
2018-12-09T10:31:46.886Z,2.33
2018-12-09T10:34:15.497Z,2.65
2018-12-09T10:36:44.347Z,1.55
2018-12-09T10:39:13.103Z,1.80
2018-12-09T10:41:41.836Z,1.05
2018-12-09T10:44:10.730Z,1.32
2018-12-09T10:46:39.401Z,5.12
2018-12-09T10:49:08.030Z,1.30
2018-12-09T10:51:36.717Z,3.20
2018-12-09T10:54:05.582Z,3.37
2018-12-09T10:56:34.131Z,2.00
2018-12-09T10:59:02.759Z,2.50
2018-12-09T11:01:36.722Z,2.37
2018-12-09T11:04:05.684Z,2.10
2018-12-09T11:06:34.718Z,3.17
2018-12-09T11:09:05.485Z,2.95
2018-12-09T11:11:34.113Z,3.30
2018-12-09T11:14:02.795Z,4.03
2018-12-09T11:16:31.191Z,4.42
2018-12-09T11:19:00.078Z,3.67
2018-12-09T11:21:30.860Z,5.60
2018-12-09T11:23:59.620Z,5.90
2018-12-09T11:26:28.529Z,4.10
2018-12-09T11:28:57.447Z,4.42
2018-12-09T11:31:26.117Z,4.47
2018-12-09T11:33:55.092Z,3.67
2018-12-09T11:36:24.014Z,3.00
2018-12-09T11:38:52.659Z,3.42
2018-12-09T11:41:21.459Z,3.83
2018-12-09T11:43:50.042Z,4.92
2018-12-09T11:46:18.772Z,5.17
2018-12-09T11:48:47.618Z,4.17
2018-12-09T11:51:16.438Z,6.17
2018-12-09T11:53:44.938Z,5.25
2018-12-09T11:56:13.755Z,3.90
2018-12-09T11:58:42.412Z,3.23
2018-12-09T12:01:11.416Z,5.00
2018-12-09T12:03:39.793Z,7.13
2018-12-09T12:06:08.416Z,6.73
2018-12-09T12:08:37.298Z,7.80
2018-12-09T12:11:05.887Z,5.27
2018-12-09T12:13:34.835Z,7.27
2018-12-09T12:16:03.721Z,7.97
2018-12-09T12:18:32.390Z,8.87
2018-12-09T12:21:01.252Z,9.67
2018-12-09T12:23:29.857Z,8.43
2018-12-09T12:25:58.780Z,5.90
2018-12-09T12:28:27.395Z,13.10
2018-12-09T12:30:56.179Z,7.30
2018-12-09T12:33:24.811Z,7.90
2018-12-09T12:35:53.151Z,5.77
2018-12-09T12:38:21.482Z,11.20
2018-12-09T12:40:49.871Z,10.03
2018-12-09T12:43:18.263Z,9.10
2018-12-09T12:45:46.859Z,9.53
2018-12-09T12:48:15.902Z,12.20
2018-12-09T12:50:44.763Z,12.53
2018-12-09T12:53:13.638Z,8.43
2018-12-09T12:55:42.427Z,6.57
2018-12-09T12:58:10.825Z,8.67
2018-12-09T13:00:39.142Z,7.43
2018-12-09T13:03:07.552Z,18.33
2018-12-09T13:05:36.361Z,7.97
2018-12-09T13:08:05.744Z,8.27
2018-12-09T13:10:34.537Z,8.53
2018-12-09T13:13:03.126Z,6.90
2018-12-09T13:15:31.954Z,5.33
2018-12-09T13:18:00.771Z,9.50
2018-12-09T13:20:29.379Z,7.80
2018-12-09T13:22:58.167Z,10.17
2018-12-09T13:25:26.902Z,12.03
2018-12-09T13:27:55.626Z,10.17
2018-12-09T13:30:24.276Z,9.27
2018-12-09T13:32:53.786Z,8.17
2018-12-09T13:35:22.512Z,6.90
2018-12-09T13:37:51.139Z,4.23
2018-12-09T13:40:20.025Z,6.07
2018-12-09T13:42:49.566Z,8.57
2018-12-09T13:45:18.191Z,7.23
2018-12-09T13:47:46.963Z,6.10
2018-12-09T13:50:15.835Z,7.27
2018-12-09T13:52:44.641Z,6.73
2018-12-09T13:55:13.046Z,6.10
2018-12-09T13:57:41.840Z,6.10
2018-12-09T14:00:15.509Z,6.83
2018-12-09T14:02:44.254Z,6.53
2018-12-09T14:05:12.958Z,5.17
2018-12-09T14:07:41.785Z,4.57
2018-12-09T14:10:10.569Z,5.37
2018-12-09T14:12:39.243Z,6.77
2018-12-09T14:15:09.193Z,5.00
2018-12-09T14:17:37.945Z,5.93
2018-12-09T14:20:08.268Z,3.83
2018-12-09T14:22:37.181Z,6.30
2018-12-09T14:25:06.754Z,4.13
2018-12-09T14:27:36.506Z,4.80
2018-12-09T14:30:06.351Z,4.20
2018-12-09T14:32:35.062Z,2.83
2018-12-09T14:35:05.022Z,7.03
2018-12-09T14:37:33.750Z,8.13
2018-12-09T14:40:02.525Z,3.20
2018-12-09T14:42:32.085Z,4.47
2018-12-09T14:45:00.781Z,4.77
2018-12-09T14:47:29.500Z,4.43
2018-12-09T14:49:59.131Z,4.73
2018-12-09T14:52:27.798Z,5.77
2018-12-09T14:54:56.872Z,7.10
2018-12-09T14:57:25.826Z,5.60
2018-12-09T14:59:54.635Z,5.87
2018-12-09T15:02:23.414Z,15.03
2018-12-09T15:04:52.281Z,9.40
2018-12-09T15:07:21.944Z,6.10
2018-12-09T15:09:51.068Z,8.03
2018-12-09T15:12:19.975Z,7.50
2018-12-09T15:14:48.799Z,7.87
2018-12-09T15:17:18.172Z,8.10
2018-12-09T15:19:46.822Z,6.83
2018-12-09T15:22:16.415Z,7.20
2018-12-09T15:24:45.422Z,5.50
2018-12-09T15:27:14.122Z,8.27
2018-12-09T15:29:42.950Z,11.37
2018-12-09T15:32:11.475Z,10.77
2018-12-09T15:34:40.293Z,9.77
2018-12-09T15:37:09.141Z,12.73
2018-12-09T15:39:37.867Z,11.27
2018-12-09T15:42:06.671Z,9.97
2018-12-09T15:44:35.235Z,8.63
2018-12-09T15:47:04.119Z,12.13
2018-12-09T15:49:32.615Z,8.50
2018-12-09T15:52:01.329Z,10.90
2018-12-09T15:54:30.276Z,12.47
2018-12-09T15:56:59.078Z,8.70
2018-12-09T15:59:31.989Z,12.77
2018-12-09T16:01:58.500Z,13.80
2018-12-09T16:04:27.261Z,6.50
2018-12-09T16:06:55.964Z,13.93
2018-12-09T16:09:24.839Z,11.43
2018-12-09T16:11:53.623Z,13.43
2018-12-09T16:14:22.351Z,23.33
2018-12-09T16:16:51.221Z,12.00
2018-12-09T16:19:19.970Z,12.13
2018-12-09T16:21:48.687Z,9.97
2018-12-09T16:24:17.580Z,12.40
2018-12-09T16:26:46.366Z,14.83
2018-12-09T16:29:15.039Z,12.03
2018-12-09T16:31:43.741Z,15.83
2018-12-09T16:34:12.735Z,12.43
2018-12-09T16:36:41.326Z,11.27
2018-12-09T16:39:10.182Z,15.80
2018-12-09T16:41:38.823Z,12.77
2018-12-09T16:44:07.175Z,15.80
2018-12-09T16:46:35.526Z,13.23
2018-12-09T16:49:04.276Z,7.93
2018-12-09T16:51:33.003Z,12.10
2018-12-09T16:54:01.756Z,11.00
2018-12-09T16:56:30.341Z,13.87
2018-12-09T16:58:58.962Z,11.07
2018-12-09T17:01:28.018Z,8.20
2018-12-09T17:03:56.689Z,11.07
2018-12-09T17:06:25.410Z,10.17
2018-12-09T17:08:54.178Z,17.87
2018-12-09T17:11:22.806Z,12.17
2018-12-09T17:13:51.632Z,8.47
2018-12-09T17:16:20.278Z,11.27
2018-12-09T17:18:49.060Z,8.27
2018-12-09T17:21:17.429Z,13.73
2018-12-09T17:23:46.096Z,9.97
2018-12-09T17:26:14.856Z,10.93
2018-12-09T17:28:43.501Z,10.70
2018-12-09T17:31:12.380Z,9.73
2018-12-09T17:33:41.058Z,14.80
2018-12-09T17:36:09.758Z,10.37
2018-12-09T17:38:38.606Z,15.53
2018-12-09T18:25:58.185Z,16.83
2018-12-09T18:28:26.871Z,18.13
2018-12-09T18:30:55.865Z,18.60
2018-12-09T18:33:24.518Z,16.30
2018-12-09T18:35:53.252Z,17.30
2018-12-09T18:38:22.047Z,13.70
2018-12-09T18:40:51.032Z,20.57
2018-12-09T18:43:19.686Z,18.47
2018-12-09T18:45:48.481Z,19.10
2018-12-09T18:48:17.184Z,16.83
2018-12-09T18:50:45.925Z,17.47
2018-12-09T18:53:14.762Z,16.10
2018-12-09T18:55:43.430Z,17.50
2018-12-09T18:58:11.967Z,16.73
2018-12-09T19:00:40.595Z,17.47
2018-12-09T19:03:09.790Z,20.47
2018-12-09T19:05:38.393Z,16.33
2018-12-09T19:08:07.082Z,15.70
2018-12-09T19:10:36.018Z,15.60
2018-12-09T19:13:04.862Z,16.30
2018-12-09T19:15:33.527Z,20.53
2018-12-09T19:18:02.129Z,23.03
2018-12-09T19:20:30.936Z,18.73
2018-12-09T19:22:59.478Z,18.60
2018-12-09T19:25:28.187Z,20.10
2018-12-09T19:27:56.854Z,17.37
2018-12-09T19:30:25.660Z,14.87
2018-12-09T19:32:54.408Z,21.87
2018-12-09T19:35:23.028Z,18.90
2018-12-09T19:37:51.850Z,16.37
2018-12-09T19:40:20.604Z,18.13
2018-12-09T19:42:49.402Z,17.97
2018-12-09T19:45:18.265Z,21.70
2018-12-09T19:47:46.946Z,17.90
2018-12-09T19:50:15.483Z,19.60
2018-12-09T19:52:44.200Z,21.20
2018-12-09T19:55:12.930Z,11.67
2018-12-09T19:57:41.583Z,18.33
2018-12-09T20:00:10.476Z,13.10
2018-12-09T20:02:39.337Z,14.97
2018-12-09T20:05:09.421Z,16.93
2018-12-09T20:07:37.893Z,19.23
2018-12-09T20:10:07.796Z,21.30
2018-12-09T20:12:36.589Z,18.97
2018-12-09T20:15:05.948Z,17.17
2018-12-09T20:17:34.653Z,17.10
2018-12-09T20:20:03.658Z,15.30
2018-12-09T20:22:32.398Z,15.37
2018-12-09T20:25:01.242Z,15.77
2018-12-09T20:27:30.166Z,12.40
2018-12-09T20:29:59.036Z,13.73
2018-12-09T20:32:35.015Z,14.87
2018-12-09T20:34:58.613Z,12.97
2018-12-09T20:37:27.398Z,17.20
2018-12-09T20:39:58.651Z,13.40
2018-12-09T20:42:28.813Z,15.40
2018-12-09T20:44:59.210Z,17.47
2018-12-09T20:47:29.769Z,21.30
2018-12-09T20:50:00.389Z,17.33
2018-12-09T20:52:30.702Z,15.00
2018-12-09T20:55:01.105Z,14.27
2018-12-09T20:57:31.501Z,15.73
2018-12-09T21:00:02.065Z,17.57
2018-12-09T21:02:32.355Z,15.17
2018-12-09T21:05:01.858Z,19.90
2018-12-09T21:07:30.838Z,12.27
2018-12-09T21:10:00.365Z,18.03
2018-12-09T21:12:29.269Z,15.40
2018-12-09T21:14:58.188Z,20.30
2018-12-09T21:17:27.223Z,15.70
2018-12-09T21:19:56.069Z,23.07
2018-12-09T21:22:25.066Z,22.43
2018-12-09T21:24:53.972Z,15.43
2018-12-09T21:27:23.048Z,11.70
2018-12-09T21:29:51.796Z,14.37
2018-12-09T21:32:20.482Z,15.03
2018-12-09T21:34:49.213Z,11.97
2018-12-09T21:37:18.097Z,16.10
2018-12-09T21:39:46.895Z,16.67
2018-12-09T21:42:15.568Z,13.87
2018-12-09T21:44:44.351Z,15.60
2018-12-09T21:47:13.097Z,18.90
2018-12-09T21:49:41.831Z,15.37
2018-12-09T21:52:10.656Z,13.30
2018-12-09T21:54:39.511Z,13.83
2018-12-09T21:57:07.864Z,13.60
2018-12-09T21:59:36.512Z,13.90
2018-12-09T22:02:05.364Z,16.00
2018-12-09T22:04:34.140Z,13.50
2018-12-09T22:07:02.794Z,13.23
2018-12-09T22:09:31.616Z,14.23
2018-12-09T22:12:00.492Z,13.33
2018-12-09T22:14:29.379Z,13.60
2018-12-09T22:16:58.139Z,12.33
2018-12-09T22:19:26.732Z,16.80
2018-12-09T22:21:55.425Z,11.47
2018-12-09T22:24:23.990Z,13.40
2018-12-09T22:26:52.579Z,13.70
2018-12-09T22:29:21.287Z,21.13
2018-12-09T22:31:50.112Z,10.15
2018-12-09T22:34:19.307Z,12.60
2018-12-09T22:36:48.073Z,12.17
2018-12-09T22:39:17.067Z,13.63
2018-12-09T22:41:45.876Z,12.43
2018-12-09T22:44:14.638Z,11.27
2018-12-09T22:46:43.322Z,11.40
2018-12-09T22:49:12.194Z,10.50
2018-12-09T22:51:40.914Z,12.70
2018-12-09T22:54:09.487Z,13.33
2018-12-09T22:56:38.259Z,11.70
2018-12-09T22:59:06.791Z,17.10
2018-12-09T23:01:35.452Z,11.97
2018-12-09T23:04:04.181Z,10.73
2018-12-09T23:06:32.920Z,13.33
2018-12-09T23:09:01.898Z,12.70
2018-12-09T23:11:30.794Z,12.53
2018-12-09T23:13:59.503Z,11.10
2018-12-09T23:16:28.226Z,14.60
2018-12-09T23:18:56.837Z,12.57
2018-12-09T23:21:25.490Z,10.07
2018-12-09T23:23:54.289Z,17.60
2018-12-09T23:26:23.204Z,10.20
2018-12-09T23:28:51.946Z,16.13
2018-12-09T23:31:20.787Z,13.33
2018-12-09T23:33:49.208Z,15.17
2018-12-09T23:36:17.847Z,12.13
2018-12-09T23:38:46.838Z,12.17
2018-12-09T23:41:15.690Z,13.70
2018-12-09T23:43:44.519Z,11.23
2018-12-09T23:46:13.232Z,9.97
2018-12-09T23:48:48.650Z,14.17
2018-12-09T23:51:17.384Z,12.37
2018-12-09T23:53:46.120Z,12.50
2018-12-09T23:56:14.819Z,13.60
2018-12-09T23:58:43.422Z,10.40
